Time;durP1;ratioP1;P1;durP2;ratioP2;P2;SDS_P1;SDS_P2;PMS_P1;PMS_P2;Temp;Humidity;BMP_temperature;BMP_pressure;BME280_temperature;BME280_humidity;BME280_pressure;Samples;Min_cycle;Max_cycle;Signal;HPM_P1;HPM_P2
2022/08/22 00:00:08;;;;;;;11.93;3.50;;;;;17.30;101094.00;;;;12672924;23;20300;-77
2022/08/22 00:05:26;;;;;;;6.90;3.53;;;;;17.20;101094.00;;;;12669072;23;20606;-77
2022/08/22 00:11:11;;;;;;;9.68;3.90;;;;;17.10;101094.00;;;;12648222;23;20186;-77
2022/08/22 00:16:16;;;;;;;9.63;3.85;;;;;17.00;101101.00;;;;12712621;23;20522;-77
2022/08/22 00:21:48;;;;;;;8.27;3.55;;;;;16.90;101091.00;;;;12648249;23;20210;-77
2022/08/22 00:27:09;;;;;;;7.40;3.38;;;;;16.80;101090.00;;;;12675300;23;20514;-77
2022/08/22 00:32:26;;;;;;;6.47;3.63;;;;;16.70;101104.00;;;;12695126;23;20238;-77
2022/08/22 00:37:34;;;;;;;8.80;4.10;;;;;16.70;101101.00;;;;12675674;23;20169;-77
2022/08/22 00:42:58;;;;;;;8.07;3.58;;;;;16.70;101101.00;;;;12699792;23;20172;-77
2022/08/22 00:48:32;;;;;;;6.67;3.67;;;;;16.60;101101.00;;;;12675632;23;20534;-77
2022/08/22 00:53:49;;;;;;;9.88;4.13;;;;;16.60;101091.00;;;;12720381;23;20271;-77
2022/08/22 00:59:16;;;;;;;8.98;3.80;;;;;16.60;101087.00;;;;12675102;23;20199;-77
2022/08/22 01:04:38;;;;;;;11.13;3.78;;;;;16.50;101087.00;;;;12676265;23;20191;-77
2022/08/22 01:10:09;;;;;;;11.77;4.10;;;;;16.40;101092.00;;;;12675015;23;20241;-77
2022/08/22 01:15:21;;;;;;;8.40;4.22;;;;;16.20;101086.00;;;;12696513;23;20245;-77
2022/08/22 01:20:39;;;;;;;6.57;4.20;;;;;16.10;101092.00;;;;12699910;23;20194;-77
2022/08/22 01:25:59;;;;;;;11.70;4.43;;;;;16.00;101091.00;;;;12627843;23;20194;-77
2022/08/22 01:31:20;;;;;;;14.37;4.33;;;;;16.00;101080.00;;;;12721254;23;20955;-77
2022/08/22 01:36:53;;;;;;;9.50;4.43;;;;;15.90;101077.00;;;;12651417;23;20196;-77
2022/08/22 01:42:04;;;;;;;5.93;4.07;;;;;15.90;101077.00;;;;12653852;23;20176;-77
2022/08/22 01:47:09;;;;;;;9.87;4.60;;;;;15.80;101079.00;;;;12653913;23;20168;-77
2022/08/22 01:52:19;;;;;;;8.83;4.83;;;;;15.80;101071.00;;;;12699030;23;20264;-77
2022/08/22 01:57:22;;;;;;;10.57;4.80;;;;;15.90;101079.00;;;;12651802;23;20172;-77
2022/08/22 02:02:33;;;;;;;9.37;4.83;;;;;15.90;101076.00;;;;12649804;23;20176;-77
2022/08/22 02:08:11;;;;;;;8.73;4.57;;;;;15.90;101084.00;;;;12650366;23;20255;-77
2022/08/22 02:13:35;;;;;;;9.47;4.27;;;;;15.90;101080.00;;;;12705531;23;20204;-77
2022/08/22 02:18:45;;;;;;;8.90;4.73;;;;;15.90;101079.00;;;;12673765;23;20259;-77
2022/08/22 02:24:11;;;;;;;9.23;5.27;;;;;15.90;101066.00;;;;12693888;23;20540;-77
2022/08/22 02:29:19;;;;;;;7.03;4.93;;;;;16.00;101062.00;;;;12687234;23;20172;-77
2022/08/22 02:34:36;;;;;;;6.82;4.68;;;;;16.00;101060.00;;;;12649175;23;20269;-77
2022/08/22 02:39:44;;;;;;;11.10;5.27;;;;;16.10;101060.00;;;;12673139;23;20164;-77
2022/08/22 02:45:10;;;;;;;8.50;4.90;;;;;16.20;101049.00;;;;12693540;23;20637;-77
2022/08/22 02:50:25;;;;;;;9.43;4.97;;;;;16.20;101052.00;;;;12694997;23;20160;-77
2022/08/22 02:55:36;;;;;;;10.33;5.47;;;;;16.20;101059.00;;;;12720200;23;20270;-77
2022/08/22 03:01:08;;;;;;;12.57;5.70;;;;;16.20;101066.00;;;;12676455;23;20172;-77
2022/08/22 03:06:16;;;;;;;7.47;4.43;;;;;16.20;101057.00;;;;12666659;23;20160;-77
2022/08/22 03:11:30;;;;;;;11.30;4.77;;;;;16.20;101050.00;;;;12675618;23;20175;-77
2022/08/22 03:16:44;;;;;;;9.98;5.57;;;;;16.20;101040.00;;;;12696356;23;20700;-77
2022/08/22 03:21:56;;;;;;;8.27;5.07;;;;;16.20;101043.00;;;;12721312;23;20495;-77
2022/08/22 03:27:27;;;;;;;6.47;4.65;;;;;16.30;101039.00;;;;12700159;23;20243;-77
2022/08/22 03:32:58;;;;;;;10.17;4.77;;;;;16.30;101042.00;;;;12676611;23;20171;-77
2022/08/22 03:46:14;;;;;;;8.27;4.63;;;;;16.30;101030.00;;;;12784366;22;20706;-77
2022/08/22 03:51:38;;;;;;;10.83;4.57;;;;;16.30;101027.00;;;;12719662;23;20183;-77
2022/08/22 03:56:58;;;;;;;12.60;4.93;;;;;16.30;101027.00;;;;12651772;23;20805;-77
2022/08/22 04:02:19;;;;;;;10.97;4.83;;;;;16.30;101021.00;;;;12720570;23;20275;-78
2022/08/22 04:07:58;;;;;;;7.03;4.70;;;;;16.30;101027.00;;;;12655476;23;20168;-78
2022/08/22 04:13:20;;;;;;;8.57;4.73;;;;;16.20;101022.00;;;;12696519;23;20211;-78
2022/08/22 04:18:50;;;;;;;10.30;4.63;;;;;16.20;101028.00;;;;12720296;23;20235;-77
2022/08/22 04:24:11;;;;;;;8.88;5.18;;;;;16.20;101029.00;;;;12674584;23;20541;-77
2022/08/22 04:29:23;;;;;;;8.40;4.90;;;;;16.20;101031.00;;;;12720227;23;20189;-78
2022/08/22 04:34:38;;;;;;;12.00;5.27;;;;;16.10;101037.00;;;;12719792;23;20176;-78
2022/08/22 04:39:43;;;;;;;8.47;5.03;;;;;16.20;101035.00;;;;12627256;23;20184;-77
2022/08/22 04:45:03;;;;;;;12.40;5.17;;;;;16.20;101028.00;;;;12719193;23;20219;-78
2022/08/22 04:50:15;;;;;;;12.30;4.93;;;;;16.20;101026.00;;;;12675509;23;20191;-78
2022/08/22 04:55:35;;;;;;;12.53;5.27;;;;;16.20;101042.00;;;;12676515;23;20195;-77
2022/08/22 05:00:50;;;;;;;8.63;5.40;;;;;16.30;101044.00;;;;12677121;23;20206;-77
2022/08/22 05:05:56;;;;;;;11.50;6.30;;;;;16.30;101038.00;;;;12699894;23;20183;-78
2022/08/22 05:11:01;;;;;;;11.60;6.37;;;;;16.40;101039.00;;;;12696151;23;20167;-77
2022/08/22 05:16:07;;;;;;;8.80;6.10;;;;;16.40;101041.00;;;;12676474;23;20187;-77
2022/08/22 05:21:11;;;;;;;14.03;6.00;;;;;16.50;101045.00;;;;12675928;23;20160;-77
2022/08/22 05:26:15;;;;;;;13.75;5.65;;;;;16.60;101050.00;;;;12675608;23;20226;-77
2022/08/22 05:31:32;;;;;;;11.23;5.72;;;;;16.70;101049.00;;;;12698811;23;20169;-77
2022/08/22 05:36:40;;;;;;;7.28;5.22;;;;;16.80;101063.00;;;;12676196;23;20183;-77
2022/08/22 05:41:43;;;;;;;12.00;5.82;;;;;16.80;101053.00;;;;12651943;23;20198;-77
2022/08/22 05:47:41;;;;;;;8.02;5.80;;;;;16.90;101054.00;;;;12674919;23;20255;-77
2022/08/22 05:53:10;;;;;;;10.73;5.53;;;;;17.00;101055.00;;;;12511512;23;20199;-77
2022/08/22 05:58:43;;;;;;;9.02;5.38;;;;;17.00;101045.00;;;;12625528;23;20176;-77
2022/08/22 06:03:48;;;;;;;10.90;6.28;;;;;17.10;101043.00;;;;12718886;23;20156;-77
2022/08/22 06:09:24;;;;;;;14.45;6.18;;;;;17.20;101046.00;;;;12715928;23;20217;-77
2022/08/22 06:14:42;;;;;;;8.10;5.63;;;;;17.40;101041.00;;;;12695292;23;20197;-77
2022/08/22 06:19:51;;;;;;;9.73;5.68;;;;;17.50;101036.00;;;;12673277;23;20174;-77
2022/08/22 06:24:56;;;;;;;11.07;5.93;;;;;17.60;101027.00;;;;12676111;23;20176;-77
2022/08/22 06:30:01;;;;;;;14.43;5.97;;;;;17.60;101026.00;;;;12699407;23;20194;-77
2022/08/22 06:35:21;;;;;;;9.43;6.35;;;;;17.60;101024.00;;;;12677816;23;20203;-77
2022/08/22 06:40:24;;;;;;;11.65;6.13;;;;;17.60;101024.00;;;;12676203;23;20623;-77
2022/08/22 06:45:31;;;;;;;13.57;6.43;;;;;17.70;101039.00;;;;12653296;23;20168;-77
2022/08/22 06:50:40;;;;;;;11.98;5.93;;;;;17.80;101048.00;;;;12675951;23;20168;-77
2022/08/22 06:55:48;;;;;;;11.73;5.80;;;;;17.80;101040.00;;;;12653147;23;20203;-77
2022/08/22 07:00:57;;;;;;;10.77;6.32;;;;;18.00;101045.00;;;;12700061;23;20229;-77
2022/08/22 07:06:33;;;;;;;7.32;5.85;;;;;18.30;101054.00;;;;12677554;23;20173;-77
2022/08/22 07:11:40;;;;;;;14.00;6.55;;;;;18.60;101056.00;;;;12676066;23;20194;-77
2022/08/22 07:16:49;;;;;;;10.80;6.57;;;;;18.90;101050.00;;;;12675903;23;20212;-77
2022/08/22 07:21:51;;;;;;;10.65;5.90;;;;;19.10;101056.00;;;;12721834;23;20191;-77
2022/08/22 07:27:18;;;;;;;10.98;6.15;;;;;19.40;101070.00;;;;12652451;23;20194;-77
2022/08/22 07:32:32;;;;;;;14.65;6.10;;;;;19.80;101066.00;;;;12695768;23;20184;-77
2022/08/22 07:37:56;;;;;;;12.32;6.22;;;;;20.20;101061.00;;;;12674772;23;20241;-77
2022/08/22 07:43:18;;;;;;;10.75;6.63;;;;;20.50;101069.00;;;;12695230;23;20213;-77
2022/08/22 07:48:32;;;;;;;10.52;5.70;;;;;20.80;101064.00;;;;12694714;23;20170;-77
2022/08/22 07:53:42;;;;;;;9.35;6.10;;;;;21.10;101064.00;;;;12650069;23;20246;-77
2022/08/22 07:58:48;;;;;;;12.13;6.43;;;;;21.20;101052.00;;;;12693589;23;20168;-77
2022/08/22 08:03:54;;;;;;;11.15;5.65;;;;;21.50;101049.00;;;;12744470;23;20160;-77
2022/08/22 08:08:57;;;;;;;9.80;5.80;;;;;21.90;101049.00;;;;12694197;23;20159;-77
2022/08/22 08:14:05;;;;;;;9.98;5.68;;;;;22.20;101048.00;;;;12719097;23;20258;-77
2022/08/22 08:19:10;;;;;;;11.95;5.22;;;;;22.50;101047.00;;;;12695283;23;20171;-77
2022/08/22 08:24:18;;;;;;;12.45;5.53;;;;;22.70;101049.00;;;;12650007;23;20692;-77
2022/08/22 08:29:20;;;;;;;9.32;5.15;;;;;22.90;101043.00;;;;12651082;23;20172;-77
2022/08/22 08:34:25;;;;;;;10.13;5.40;;;;;23.20;101036.00;;;;12720240;23;20176;-77
2022/08/22 08:39:39;;;;;;;9.18;4.60;;;;;23.50;101026.00;;;;12693764;23;20637;-77
2022/08/22 08:44:56;;;;;;;12.32;5.63;;;;;23.80;101015.00;;;;12649826;23;20175;-77
2022/08/22 08:50:24;;;;;;;12.27;5.32;;;;;24.00;101023.00;;;;12697316;23;20178;-77
2022/08/22 08:55:44;;;;;;;9.95;4.85;;;;;24.30;101010.00;;;;12698031;23;20187;-77
2022/08/22 09:00:48;;;;;;;10.63;4.13;;;;;24.50;101011.00;;;;12718661;23;20606;-77
2022/08/22 09:06:13;;;;;;;11.68;5.65;;;;;24.70;101001.00;;;;12673145;23;20175;-77
2022/08/22 09:11:58;;;;;;;12.82;4.88;;;;;25.40;100994.00;;;;12666990;23;20164;-77
2022/08/22 09:17:18;;;;;;;7.78;4.07;;;;;25.40;100991.00;;;;12648940;23;20282;-77
2022/08/22 09:22:55;;;;;;;12.73;4.40;;;;;26.10;100992.00;;;;12641769;23;20254;-77
2022/08/22 09:28:16;;;;;;;8.00;4.05;;;;;26.90;100999.00;;;;12648868;23;20190;-77
2022/08/22 09:33:23;;;;;;;11.30;4.07;;;;;27.20;101000.00;;;;12714574;23;20175;-77
2022/08/22 09:38:57;;;;;;;10.93;4.10;;;;;27.60;100988.00;;;;12691190;23;20522;-77
2022/08/22 09:44:21;;;;;;;11.38;3.72;;;;;28.20;100980.00;;;;12664760;23;20197;-77
2022/08/22 09:49:47;;;;;;;9.20;3.38;;;;;28.30;100980.00;;;;12712044;23;20266;-78
2022/08/22 09:55:03;;;;;;;10.35;4.05;;;;;28.60;100986.00;;;;12645008;23;20195;-78
2022/08/22 10:00:21;;;;;;;14.60;3.53;;;;;28.90;100983.00;;;;12688433;23;20221;-78
2022/08/22 10:05:26;;;;;;;8.63;3.65;;;;;29.30;100980.00;;;;12662953;23;20838;-77
2022/08/22 10:10:48;;;;;;;8.77;3.40;;;;;29.60;100970.00;;;;12688887;23;20828;-78
2022/08/22 10:16:00;;;;;;;9.43;3.58;;;;;29.50;100963.00;;;;12688903;23;20188;-75
2022/08/22 10:21:31;;;;;;;8.65;3.25;;;;;29.10;100960.00;;;;12739491;23;20740;-78
2022/08/22 10:26:43;;;;;;;8.35;3.00;;;;;28.80;100959.00;;;;12669586;23;20232;-79
2022/08/22 10:31:55;;;;;;;8.90;3.15;;;;;28.50;100953.00;;;;12645038;23;20490;-76
2022/08/22 10:37:30;;;;;;;7.35;2.55;;;;;29.00;100942.00;;;;12622825;23;20195;-76
2022/08/22 10:43:05;;;;;;;6.78;2.83;;;;;30.00;100950.00;;;;12716751;23;20168;-76
2022/08/22 10:48:10;;;;;;;7.05;2.80;;;;;30.50;100946.00;;;;12670547;23;20168;-77
2022/08/22 10:53:34;;;;;;;7.80;3.05;;;;;30.90;100945.00;;;;12646176;23;20242;-77
2022/08/22 10:58:53;;;;;;;7.22;3.00;;;;;31.10;100944.00;;;;12688300;23;20195;-77
2022/08/22 11:04:18;;;;;;;6.55;2.38;;;;;31.60;100942.00;;;;12687977;23;20490;-77
2022/08/22 11:09:36;;;;;;;8.23;2.75;;;;;32.10;100938.00;;;;12671148;23;20237;-77
2022/08/22 11:14:57;;;;;;;8.23;2.80;;;;;32.30;100930.00;;;;12715287;23;20612;-77
2022/08/22 11:20:07;;;;;;;6.05;2.28;;;;;32.80;100925.00;;;;12692646;23;20163;-77
2022/08/22 11:25:20;;;;;;;7.18;2.25;;;;;32.90;100919.00;;;;12623805;23;20163;-77
2022/08/22 11:30:56;;;;;;;7.30;2.40;;;;;33.20;100907.00;;;;12647584;23;20178;-78
2022/08/22 11:36:20;;;;;;;7.38;2.85;;;;;33.60;100910.00;;;;12647962;23;20233;-77
2022/08/22 11:41:54;;;;;;;4.20;2.20;;;;;33.80;100894.00;;;;12691173;23;20170;-78
2022/08/22 11:46:58;;;;;;;5.35;2.10;;;;;34.80;100900.00;;;;12647743;23;20179;-78
2022/08/22 11:52:12;;;;;;;4.78;2.20;;;;;34.60;100894.00;;;;12646443;23;20174;-77
2022/08/22 11:57:36;;;;;;;6.70;1.98;;;;;35.10;100889.00;;;;12656397;23;20210;-79
2022/08/22 12:02:57;;;;;;;3.85;1.85;;;;;35.20;100893.00;;;;12670557;23;20179;-78
2022/08/22 12:08:15;;;;;;;6.85;1.98;;;;;34.30;100892.00;;;;12645989;23;20167;-78
2022/08/22 12:13:34;;;;;;;6.65;2.25;;;;;34.60;100893.00;;;;12642830;23;20208;-78
2022/08/22 12:18:49;;;;;;;6.28;2.10;;;;;34.80;100890.00;;;;12643331;23;20282;-78
2022/08/22 12:24:48;;;;;;;6.85;1.85;;;;;34.40;100887.00;;;;12669576;23;20179;-78
2022/08/22 12:30:19;;;;;;;4.63;2.10;;;;;34.00;100880.00;;;;12728574;23;20187;-78
2022/08/22 12:35:41;;;;;;;7.55;2.05;;;;;33.30;100885.00;;;;12646578;23;20188;-78
2022/08/22 12:41:10;;;;;;;4.07;2.22;;;;;33.30;100866.00;;;;12670782;23;20174;-78
2022/08/22 12:46:16;;;;;;;4.97;2.00;;;;;34.00;100855.00;;;;12713255;23;20171;-78
2022/08/22 12:51:25;;;;;;;4.95;2.03;;;;;34.80;100844.00;;;;12669063;23;20607;-77
2022/08/22 12:56:48;;;;;;;6.15;2.15;;;;;34.80;100838.00;;;;12714217;23;20187;-78
2022/08/22 13:01:59;;;;;;;5.22;1.90;;;;;35.20;100845.00;;;;12644659;23;20175;-78
2022/08/22 13:07:06;;;;;;;4.65;2.10;;;;;35.20;100834.00;;;;12695565;23;20164;-78
2022/08/22 13:12:24;;;;;;;6.68;1.80;;;;;36.00;100826.00;;;;12646627;23;20175;-78
2022/08/22 13:17:28;;;;;;;7.10;2.20;;;;;36.90;100830.00;;;;12714044;23;20218;-78
2022/08/22 13:22:37;;;;;;;6.80;1.70;;;;;37.00;100820.00;;;;12693444;23;20164;-79
2022/08/22 13:27:47;;;;;;;6.57;1.88;;;;;37.80;100822.00;;;;12666985;23;20199;-78
2022/08/22 13:33:12;;;;;;;3.72;1.88;;;;;37.90;100817.00;;;;12667730;23;20258;-78
2022/08/22 13:38:23;;;;;;;9.75;2.20;;;;;39.30;100807.00;;;;12646530;23;20184;-78
2022/08/22 13:44:05;;;;;;;5.65;1.98;;;;;39.00;100808.00;;;;12711365;23;20270;-78
2022/08/22 13:49:11;;;;;;;5.70;2.15;;;;;39.40;100802.00;;;;12738947;23;20611;-78
2022/08/22 13:54:47;;;;;;;5.72;2.10;;;;;36.80;100802.00;;;;12627331;23;20283;-78
2022/08/22 14:00:05;;;;;;;5.50;2.08;;;;;36.60;100797.00;;;;12652745;23;20167;-78
2022/08/22 14:05:15;;;;;;;5.45;1.77;;;;;35.30;100783.00;;;;12649361;23;20181;-78
2022/08/22 14:10:26;;;;;;;4.03;1.80;;;;;33.20;100792.00;;;;12674931;23;20164;-78
2022/08/22 14:15:32;;;;;;;6.57;1.90;;;;;31.90;100792.00;;;;12649285;23;20227;-78
2022/08/22 14:20:47;;;;;;;3.05;1.52;;;;;31.50;100778.00;;;;12651100;23;20259;-77
2022/08/22 14:25:50;;;;;;;7.18;2.22;;;;;35.50;100794.00;;;;12652360;23;20172;-77
2022/08/22 14:31:09;;;;;;;5.82;2.13;;;;;33.80;100770.00;;;;12673362;23;20179;-77
2022/08/22 14:36:23;;;;;;;6.88;2.20;;;;;32.40;100762.00;;;;12653097;23;20226;-78
2022/08/22 14:41:50;;;;;;;4.70;2.28;;;;;32.40;100751.00;;;;12673745;23;20722;-77
2022/08/22 14:47:02;;;;;;;7.13;1.95;;;;;37.40;100729.00;;;;12701489;23;20164;-77
2022/08/22 14:52:09;;;;;;;5.03;2.20;;;;;39.90;100735.00;;;;12743536;23;20163;-78
2022/08/22 14:57:21;;;;;;;5.65;2.10;;;;;40.40;100738.00;;;;12675051;23;20215;-78
2022/08/22 15:02:31;;;;;;;6.38;2.33;;;;;38.60;100754.00;;;;12648842;23;20798;-78
2022/08/22 15:07:35;;;;;;;7.35;2.00;;;;;33.90;100769.00;;;;12674451;23;20193;-78
2022/08/22 15:12:48;;;;;;;6.40;2.22;;;;;32.30;100759.00;;;;12692562;23;20164;-78
2022/08/22 15:17:50;;;;;;;5.70;2.38;;;;;31.30;100741.00;;;;12679721;23;20206;-78
2022/08/22 15:22:56;;;;;;;4.88;2.10;;;;;30.80;100754.00;;;;12654315;23;20194;-78
2022/08/22 15:28:05;;;;;;;7.07;2.10;;;;;30.00;100748.00;;;;12654307;23;20194;-78
2022/08/22 15:33:31;;;;;;;6.35;1.92;;;;;29.40;100748.00;;;;12673545;23;20191;-77
2022/08/22 15:38:37;;;;;;;6.43;2.60;;;;;29.00;100747.00;;;;12773388;23;20570;-78
2022/08/22 15:43:52;;;;;;;5.90;2.25;;;;;28.50;100734.00;;;;12672984;23;20171;-78
2022/08/22 15:49:26;;;;;;;5.95;2.00;;;;;28.30;100728.00;;;;12670854;23;20191;-78
2022/08/22 15:54:53;;;;;;;4.47;2.08;;;;;27.90;100729.00;;;;12648249;23;20223;-78
2022/08/22 16:00:03;;;;;;;5.13;2.00;;;;;27.50;100719.00;;;;12648529;23;20265;-78
2022/08/22 16:05:13;;;;;;;6.30;2.05;;;;;27.40;100712.00;;;;12649950;23;20474;-78
2022/08/22 16:10:21;;;;;;;7.22;2.20;;;;;27.40;100713.00;;;;12647086;23;20618;-78
2022/08/22 16:15:48;;;;;;;5.60;1.85;;;;;27.20;100721.00;;;;12672839;23;20192;-78
2022/08/22 16:21:00;;;;;;;9.05;2.67;;;;;26.90;100718.00;;;;12669242;23;20170;-78
2022/08/22 16:26:02;;;;;;;4.03;2.05;;;;;27.00;100705.00;;;;12647624;23;20255;-78
2022/08/22 16:31:26;;;;;;;4.78;2.15;;;;;27.20;100694.00;;;;12671759;23;20273;-77
2022/08/22 16:37:02;;;;;;;14.90;2.70;;;;;27.50;100693.00;;;;12737827;23;20180;-78
2022/08/22 16:42:22;;;;;;;5.72;2.28;;;;;27.80;100694.00;;;;12641858;23;20209;-78
2022/08/22 16:47:35;;;;;;;3.33;1.70;;;;;28.00;100697.00;;;;12670149;23;20167;-78
2022/08/22 16:52:57;;;;;;;7.47;2.70;;;;;27.90;100695.00;;;;12670253;23;20202;-78
2022/08/22 16:58:30;;;;;;;4.80;2.20;;;;;27.60;100697.00;;;;12646293;23;20192;-78
2022/08/22 17:04:12;;;;;;;5.40;2.10;;;;;26.90;100700.00;;;;12671778;23;20955;-78
2022/08/22 17:09:32;;;;;;;4.57;1.98;;;;;26.50;100698.00;;;;12644561;23;20214;-78
2022/08/22 17:14:54;;;;;;;4.38;2.05;;;;;26.30;100709.00;;;;12647615;23;20198;-78
2022/08/22 17:20:10;;;;;;;5.80;2.05;;;;;26.00;100707.00;;;;12667135;23;20187;-79
2022/08/22 17:25:19;;;;;;;7.65;2.55;;;;;25.70;100717.00;;;;12697483;23;20164;-78
2022/08/22 17:30:37;;;;;;;5.22;2.10;;;;;25.40;100721.00;;;;12692321;23;20528;-78
2022/08/22 17:36:21;;;;;;;4.65;1.90;;;;;25.20;100728.00;;;;12623121;23;20188;-78
2022/08/22 17:41:46;;;;;;;5.13;2.15;;;;;25.10;100723.00;;;;12647649;23;20171;-78
2022/08/22 17:46:51;;;;;;;3.80;2.15;;;;;25.10;100734.00;;;;12716397;23;20242;-78
2022/08/22 17:52:27;;;;;;;4.57;2.17;;;;;25.10;100734.00;;;;12644270;23;20680;-78
2022/08/22 17:58:02;;;;;;;7.22;2.13;;;;;24.90;100727.00;;;;12673782;23;20259;-78
2022/08/22 18:03:24;;;;;;;4.47;2.50;;;;;24.90;100739.00;;;;12647064;23;20210;-77
2022/08/22 18:08:33;;;;;;;4.45;2.25;;;;;24.70;100741.00;;;;12646999;23;20217;-77
2022/08/22 18:13:58;;;;;;;5.45;2.28;;;;;24.60;100743.00;;;;12649779;23;20603;-77
2022/08/22 18:19:39;;;;;;;7.72;2.63;;;;;24.40;100739.00;;;;12648829;23;20573;-77
2022/08/22 18:25:00;;;;;;;7.43;2.40;;;;;24.20;100746.00;;;;12657990;23;20282;-78
2022/08/22 18:30:33;;;;;;;9.23;2.72;;;;;24.00;100748.00;;;;12750193;23;20178;-77
2022/08/22 18:35:45;;;;;;;7.53;2.35;;;;;23.80;100750.00;;;;12649704;23;20195;-78
2022/08/22 18:41:10;;;;;;;6.18;2.00;;;;;23.70;100755.00;;;;12675117;23;20625;-78
2022/08/22 18:46:37;;;;;;;4.38;1.98;;;;;23.50;100768.00;;;;12651024;23;20206;-78
2022/08/22 18:51:40;;;;;;;8.10;2.63;;;;;23.40;100770.00;;;;12673418;23;20545;-78
2022/08/22 18:56:47;;;;;;;6.68;2.30;;;;;23.30;100775.00;;;;12668575;23;20184;-77
2022/08/22 19:02:08;;;;;;;6.63;2.55;;;;;23.20;100794.00;;;;12692620;23;20156;-78
2022/08/22 19:07:28;;;;;;;9.30;2.80;;;;;23.10;100796.00;;;;12674050;23;20168;-77
2022/08/22 19:12:40;;;;;;;6.00;2.53;;;;;22.90;100791.00;;;;12651493;23;20250;-77
2022/08/22 19:18:16;;;;;;;4.55;2.22;;;;;22.70;100801.00;;;;12673628;23;20199;-78
2022/08/22 19:23:30;;;;;;;20.15;3.60;;;;;22.60;100806.00;;;;12644963;23;20557;-78
2022/08/22 19:28:36;;;;;;;8.02;2.70;;;;;22.40;100804.00;;;;12689178;23;20160;-78
2022/08/22 19:33:40;;;;;;;12.65;2.22;;;;;22.20;100806.00;;;;12689835;23;20246;-78
2022/08/22 19:38:58;;;;;;;6.40;2.60;;;;;21.90;100814.00;;;;12696301;23;20589;-78
2022/08/22 19:44:00;;;;;;;8.07;2.72;;;;;21.70;100818.00;;;;12623536;23;20963;-78
2022/08/22 19:49:05;;;;;;;9.35;3.25;;;;;21.50;100812.00;;;;12672140;23;20209;-77
2022/08/22 19:54:15;;;;;;;12.88;2.90;;;;;21.30;100816.00;;;;12647287;23;20229;-78
2022/08/22 19:59:27;;;;;;;4.68;2.30;;;;;21.20;100824.00;;;;12671346;23;20188;-78
2022/08/22 20:04:32;;;;;;;4.70;1.80;;;;;21.10;100820.00;;;;12620216;23;20205;-79
2022/08/22 20:10:13;;;;;;;4.22;2.08;;;;;21.00;100823.00;;;;12715744;23;20168;-78
2022/08/22 20:15:20;;;;;;;8.27;2.30;;;;;20.90;100818.00;;;;12621934;23;20187;-78
2022/08/22 20:20:24;;;;;;;7.03;2.65;;;;;20.80;100815.00;;;;12716366;23;20156;-78
2022/08/22 20:25:48;;;;;;;5.22;2.92;;;;;20.60;100826.00;;;;12673380;23;20199;-78
2022/08/22 20:30:56;;;;;;;5.20;2.90;;;;;20.50;100819.00;;;;12692468;23;20243;-78
2022/08/22 20:36:08;;;;;;;3.83;2.53;;;;;20.30;100823.00;;;;12694271;23;20207;-78
2022/08/22 20:41:39;;;;;;;10.10;2.75;;;;;20.10;100833.00;;;;12652320;23;20200;-78
2022/08/22 20:47:05;;;;;;;6.72;3.17;;;;;20.00;100823.00;;;;12673520;23;20175;-78
2022/08/22 20:52:25;;;;;;;9.60;3.15;;;;;20.20;100828.00;;;;12647822;23;20538;-78
2022/08/22 20:57:28;;;;;;;7.22;3.63;;;;;20.30;100832.00;;;;12649483;23;20849;-78
2022/08/22 21:02:39;;;;;;;9.20;2.78;;;;;20.20;100826.00;;;;12673401;23;20164;-78
2022/08/22 21:07:44;;;;;;;11.10;3.15;;;;;20.10;100838.00;;;;12666568;23;20164;-78
2022/08/22 21:13:10;;;;;;;12.85;3.30;;;;;20.00;100843.00;;;;12695865;23;20172;-78
2022/08/22 21:18:35;;;;;;;7.97;3.83;;;;;19.90;100844.00;;;;12669269;23;20191;-78
2022/08/22 21:23:43;;;;;;;6.93;3.20;;;;;19.90;100845.00;;;;12671662;23;20171;-78
2022/08/22 21:28:47;;;;;;;8.63;3.85;;;;;19.70;100854.00;;;;12647442;23;20241;-78
2022/08/22 21:33:52;;;;;;;10.93;3.95;;;;;19.70;100852.00;;;;12690533;23;20837;-78
2022/08/22 21:39:04;;;;;;;9.38;4.57;;;;;19.60;100851.00;;;;12691582;23;20180;-79
2022/08/22 21:44:37;;;;;;;10.80;4.15;;;;;19.70;100851.00;;;;12666045;23;20186;-78
2022/08/22 21:50:07;;;;;;;13.32;4.47;;;;;19.70;100853.00;;;;12700669;23;20188;-78
2022/08/22 21:55:34;;;;;;;9.45;4.68;;;;;19.50;100861.00;;;;12667369;23;20199;-79
2022/08/22 22:00:48;;;;;;;11.27;5.25;;;;;19.40;100858.00;;;;12623420;23;20168;-78
2022/08/22 22:05:55;;;;;;;14.02;5.65;;;;;19.30;100855.00;;;;12669147;23;20160;-78
2022/08/22 22:11:00;;;;;;;16.38;6.50;;;;;19.20;100865.00;;;;12666567;23;20635;-79
2022/08/22 22:16:05;;;;;;;14.48;6.03;;;;;19.30;100862.00;;;;12665359;23;20184;-78
2022/08/22 22:21:08;;;;;;;15.77;7.35;;;;;19.30;100861.00;;;;12644556;23;20222;-78
2022/08/22 22:26:10;;;;;;;17.00;7.85;;;;;19.30;100863.00;;;;12689145;23;20191;-79
2022/08/22 22:31:17;;;;;;;14.35;7.63;;;;;19.40;100866.00;;;;12621567;23;20167;-78
2022/08/22 22:36:25;;;;;;;17.65;8.00;;;;;19.40;100869.00;;;;12668033;23;20206;-78
2022/08/22 22:41:27;;;;;;;13.43;7.68;;;;;19.30;100868.00;;;;12646496;23;20603;-79
2022/08/22 22:46:30;;;;;;;13.45;8.10;;;;;19.30;100866.00;;;;12645381;23;20172;-79
2022/08/22 22:51:32;;;;;;;20.75;8.90;;;;;19.10;100867.00;;;;12646495;23;20171;-79
2022/08/22 22:56:34;;;;;;;21.50;8.32;;;;;18.90;100873.00;;;;12669714;23;20184;-78
2022/08/22 23:02:05;;;;;;;17.55;8.68;;;;;18.80;100881.00;;;;12716421;23;20171;-78
2022/08/22 23:07:09;;;;;;;19.65;8.45;;;;;18.60;100883.00;;;;12668805;23;20175;-78
2022/08/22 23:12:13;;;;;;;19.80;9.40;;;;;18.50;100885.00;;;;12692807;23;20168;-78
2022/08/22 23:17:15;;;;;;;18.27;9.65;;;;;18.50;100884.00;;;;12649058;23;20199;-78
2022/08/22 23:22:18;;;;;;;15.73;9.60;;;;;18.50;100881.00;;;;12716848;23;20160;-78
2022/08/22 23:27:20;;;;;;;16.70;9.55;;;;;18.40;100885.00;;;;12672078;23;20222;-78
2022/08/22 23:32:22;;;;;;;15.35;11.00;;;;;18.30;100879.00;;;;12625143;23;20175;-78
2022/08/22 23:37:25;;;;;;;18.95;10.70;;;;;18.30;100886.00;;;;12669103;23;20187;-78
2022/08/22 23:42:28;;;;;;;21.67;9.95;;;;;18.20;100885.00;;;;12649085;23;20246;-78
2022/08/22 23:47:30;;;;;;;17.92;9.88;;;;;18.20;100883.00;;;;12669304;23;20167;-78
2022/08/22 23:52:32;;;;;;;17.25;9.95;;;;;18.10;100890.00;;;;12673191;23;20195;-78
2022/08/22 23:57:34;;;;;;;26.05;11.85;;;;;18.00;100887.00;;;;12648585;23;20643;-79
